SUMU/MVD METAR and TAF weather

Enter ICAO airport designator
Station Type Date Time Source
SUMU METAR 2023/01/30 11:00 UTC NOAA

SUMU 301100Z 11010KT 9999 BKN015 24/19 Q1012 NOSIG


Station Type Date Time Source
SUMU Decoded METAR 2023/01/30 11:00 UTC NOAA

Carrasco, Uruguay (SUMU) 34-50S 056-00W 32M
Jan 30, 2023 - 06:00 AM EST / 2023.01.30 1100 UTC
Wind: from the ESE (110 degrees) at 12 MPH (10 KT):0
Visibility: greater than 7 mile(s):0
Sky conditions: mostly cloudy
Temperature: 75 F (24 C)
Dew Point: 66 F (19 C)
Relative Humidity: 73%
Pressure (altimeter): 29.88 in. Hg (1012 hPa)
ob: SUMU 301100Z 11010KT 9999 BKN015 24/19 Q1012 NOSIG
cycle: 11

Station Type Date Time Source
SUMU TAF 2023/01/30 06:42 UTC NOAA

TAF SUMU 300530Z 3006/3106 11012KT 9999 SCT023 TX27/3018Z TN19/3009Z
TEMPO 3007/3015 BKN015

Example: see airport list